Time;durP1;ratioP1;P1;durP2;ratioP2;P2;SDS_P1;SDS_P2;PMS_P1;PMS_P2;Temp;Humidity;BMP_temperature;BMP_pressure;BME280_temperature;BME280_humidity;BME280_pressure;Samples;Min_cycle;Max_cycle;Signal;HPM_P1;HPM_P2
2022/11/06 00:03:36;;;;;;;10.30;5.20;;;;;;;9.17;100.00;101196.72;12747767;23;20018;-79
2022/11/06 00:08:39;;;;;;;9.18;6.10;;;;;;;8.98;100.00;101152.03;12747856;23;20029;-79
2022/11/06 00:13:40;;;;;;;13.50;6.78;;;;;;;9.27;100.00;101205.22;12748063;23;20017;-79
2022/11/06 00:18:41;;;;;;;10.35;5.22;;;;;;;9.15;100.00;101176.06;12720445;23;20017;-80
2022/11/06 00:23:41;;;;;;;11.82;5.13;;;;;;;9.29;100.00;101194.00;12742927;23;20021;-80
2022/11/06 00:28:42;;;;;;;11.90;5.00;;;;;;;9.19;100.00;101178.09;12744774;23;20013;-80
2022/11/06 00:33:43;;;;;;;13.88;6.30;;;;;;;9.34;100.00;101194.09;12746390;23;20021;-80
2022/11/06 00:38:43;;;;;;;11.20;6.07;;;;;;;8.95;100.00;101166.25;12716089;23;20009;-81
2022/11/06 00:43:52;;;;;;;17.70;6.45;;;;;;;9.06;100.00;101197.53;12745761;23;20088;-81
2022/11/06 00:48:53;;;;;;;15.23;5.93;;;;;;;9.01;100.00;101214.75;12721920;23;20047;-80
2022/11/06 00:53:55;;;;;;;12.93;6.97;;;;;;;8.81;100.00;101190.31;12721139;23;20029;-81
2022/11/06 00:58:58;;;;;;;10.15;6.13;;;;;;;8.79;100.00;101172.44;12683089;23;20036;-78
2022/11/06 01:04:01;;;;;;;15.10;7.32;;;;;;;8.88;100.00;101204.78;12719817;23;20044;-79
2022/11/06 01:09:02;;;;;;;13.23;7.25;;;;;;;8.74;100.00;101202.47;12745016;23;20013;-79
2022/11/06 01:14:03;;;;;;;16.60;7.82;;;;;;;8.71;100.00;101219.44;12718580;23;20480;-79
2022/11/06 01:19:03;;;;;;;14.35;9.23;;;;;;;8.65;100.00;101205.56;12719128;23;20021;-80
2022/11/06 01:24:06;;;;;;;17.55;9.18;;;;;;;8.63;100.00;101207.69;12741262;23;20025;-79
2022/11/06 01:29:09;;;;;;;11.82;9.02;;;;;;;8.33;100.00;101141.84;12720994;23;20039;-79
2022/11/06 01:34:10;;;;;;;16.50;9.20;;;;;;;8.16;100.00;101133.41;12706212;23;20235;-80
2022/11/06 01:39:12;;;;;;;15.25;8.38;;;;;;;8.50;100.00;101191.44;12721133;23;20076;-80
2022/11/06 01:44:34;;;;;;;20.10;9.80;;;;;;;8.51;100.00;101186.78;12696528;23;20073;-78
2022/11/06 01:49:36;;;;;;;14.35;9.23;;;;;;;8.39;100.00;101172.97;12765360;23;20021;-79
2022/11/06 01:54:38;;;;;;;20.92;9.70;;;;;;;8.08;100.00;101125.50;12737861;23;20039;-80
2022/11/06 01:59:41;;;;;;;20.48;10.27;;;;;;;8.28;100.00;101152.66;12717856;23;20017;-79
2022/11/06 02:04:43;;;;;;;15.77;9.93;;;;;;;8.45;100.00;101185.78;12717540;23;20016;-79
2022/11/06 02:09:44;;;;;;;17.35;10.20;;;;;;;8.43;100.00;101153.13;12695742;23;20023;-81
2022/11/06 02:14:53;;;;;;;14.60;9.82;;;;;;;8.41;100.00;101148.91;12719282;23;20031;-81
2022/11/06 02:20:27;;;;;;;20.08;9.05;;;;;;;8.20;100.00;101120.06;12793512;23;20017;-81
2022/11/06 02:25:40;;;;;;;20.05;9.57;;;;;;;8.42;100.00;101145.94;12722972;23;20072;-82
2022/11/06 02:30:43;;;;;;;16.52;9.65;;;;;;;8.39;100.00;101134.56;12769067;23;20017;-81
2022/11/06 02:35:52;;;;;;;19.90;9.95;;;;;;;8.47;100.00;101137.00;12743648;23;20069;-82
2022/11/06 02:40:55;;;;;;;14.32;9.02;;;;;;;8.23;100.00;101095.75;12695361;23;20018;-83
2022/11/06 02:45:58;;;;;;;15.82;9.20;;;;;;;8.47;100.00;101129.63;12693976;23;20021;-82
2022/11/06 02:50:59;;;;;;;20.30;10.73;;;;;;;8.11;100.00;101070.19;12744013;23;20092;-81
2022/11/06 02:56:08;;;;;;;20.80;10.68;;;;;;;8.28;100.00;101108.75;12719436;23;20020;-82
2022/11/06 03:01:15;;;;;;;18.20;11.52;;;;;;;8.05;100.00;101074.69;12718479;23;20024;-82
2022/11/06 03:06:38;;;;;;;16.20;10.85;;;;;;;8.34;100.00;101126.19;12705134;23;20036;-82
2022/11/06 03:11:38;;;;;;;19.30;11.52;;;;;;;8.34;100.00;101135.25;12718385;23;20009;-82
2022/11/06 03:16:58;;;;;;;24.50;12.90;;;;;;;8.36;100.00;101124.06;12744512;23;20021;-82
2022/11/06 03:22:08;;;;;;;20.35;11.05;;;;;;;8.32;100.00;101129.16;12742138;23;20021;-82
2022/11/06 03:27:16;;;;;;;22.02;11.75;;;;;;;7.96;100.00;101067.03;12722442;23;20390;-82
2022/11/06 03:32:26;;;;;;;23.10;11.10;;;;;;;8.25;100.00;101121.03;12721647;23;20028;-82
2022/11/06 03:37:35;;;;;;;20.65;11.23;;;;;;;8.15;100.00;101098.00;12745003;23;20021;-83
2022/11/06 03:42:36;;;;;;;18.70;11.40;;;;;;;8.26;100.00;101125.44;12723203;23;20009;-83
2022/11/06 03:47:42;;;;;;;24.02;11.77;;;;;;;7.75;100.00;101041.81;12720692;23;20037;-83
2022/11/06 03:52:45;;;;;;;18.65;10.60;;;;;;;8.05;100.00;101093.06;12696305;23;20017;-83
2022/11/06 03:57:53;;;;;;;20.58;12.82;;;;;;;8.15;100.00;101134.47;12735626;23;20061;-83
2022/11/06 04:03:03;;;;;;;24.65;11.60;;;;;;;7.56;100.00;101037.41;12744138;23;20063;-83
2022/11/06 04:18:42;;;;;;;21.77;10.93;;;;;;;7.92;100.00;101101.44;12775191;23;20013;-82
2022/11/06 04:29:53;;;;;;;23.92;11.13;;;;;;;8.09;100.00;101127.19;12799335;23;20025;-81
2022/11/06 04:35:00;;;;;;;20.13;10.32;;;;;;;8.05;100.00;101137.75;12809834;23;20031;-82
2022/11/06 04:40:22;;;;;;;22.55;10.35;;;;;;;8.11;100.00;101132.44;12783802;23;20021;-81
2022/11/06 04:45:25;;;;;;;21.27;11.88;;;;;;;8.08;100.00;101130.97;12799620;23;20474;-82
2022/11/06 04:50:26;;;;;;;24.90;10.90;;;;;;;8.10;100.00;101137.06;12750072;23;20009;-81
2022/11/06 04:55:28;;;;;;;23.05;10.20;;;;;;;7.57;100.00;101045.41;12746860;23;20607;-82
2022/11/06 05:00:28;;;;;;;15.63;8.93;;;;;;;8.14;100.00;101123.72;12745127;23;20021;-81
2022/11/06 05:05:29;;;;;;;18.30;9.70;;;;;;;8.12;100.00;101129.44;12744510;23;20009;-81
2022/11/06 05:10:29;;;;;;;18.55;9.38;;;;;;;7.83;100.00;101063.41;12720049;23;20009;-82
2022/11/06 05:15:30;;;;;;;17.20;9.55;;;;;;;7.77;100.00;101067.09;12720869;23;20021;-82
2022/11/06 05:20:30;;;;;;;22.00;8.93;;;;;;;7.96;100.00;101102.66;12720372;23;20010;-82
2022/11/06 05:25:33;;;;;;;16.77;9.68;;;;;;;7.65;100.00;101027.81;12696960;23;20009;-82
2022/11/06 05:30:34;;;;;;;14.15;8.25;;;;;;;8.13;100.00;101097.38;12719750;23;20029;-82
2022/11/06 05:35:35;;;;;;;17.13;9.02;;;;;;;8.11;100.00;101089.38;12769113;23;20017;-82
2022/11/06 05:40:35;;;;;;;16.35;8.70;;;;;;;8.16;100.00;101089.50;12720179;23;21090;-81
2022/11/06 05:45:36;;;;;;;19.27;9.23;;;;;;;8.15;100.00;101085.13;12768358;23;20355;-82
2022/11/06 05:50:36;;;;;;;15.07;7.68;;;;;;;8.19;100.00;101071.78;12745332;23;20014;-82
2022/11/06 05:55:37;;;;;;;13.05;7.63;;;;;;;8.20;100.00;101077.00;12721029;23;20016;-82
2022/11/06 06:00:37;;;;;;;13.25;7.43;;;;;;;8.22;100.00;101077.59;12743586;23;20024;-83
2022/11/06 06:05:38;;;;;;;12.60;7.53;;;;;;;8.15;100.00;101057.69;12742855;23;20013;-82
2022/11/06 06:10:42;;;;;;;12.45;7.65;;;;;;;8.27;100.00;101066.78;12719484;23;20455;-83
2022/11/06 06:15:43;;;;;;;10.98;6.68;;;;;;;8.24;100.00;101056.28;12694444;23;20455;-82
2022/11/06 06:20:44;;;;;;;11.95;6.97;;;;;;;8.01;100.00;101023.31;12743983;23;20088;-81
2022/11/06 06:25:44;;;;;;;15.27;7.30;;;;;;;8.27;100.00;101061.31;12696285;23;20009;-82
2022/11/06 06:30:45;;;;;;;12.88;6.13;;;;;;;8.24;100.00;101071.91;12719303;23;20021;-82
2022/11/06 06:35:45;;;;;;;12.20;5.32;;;;;;;7.65;100.00;100971.13;12718356;23;20401;-82
2022/11/06 06:40:46;;;;;;;13.88;5.40;;;;;;;7.86;100.00;100999.91;12720460;23;20013;-82
2022/11/06 06:45:46;;;;;;;12.35;4.80;;;;;;;8.26;100.00;101076.06;12694438;23;20024;-82
2022/11/06 06:50:47;;;;;;;10.85;5.18;;;;;;;8.30;100.00;101060.00;12719157;23;20023;-82
2022/11/06 06:55:47;;;;;;;11.77;4.63;;;;;;;8.36;100.00;101059.06;12767447;23;20021;-83
2022/11/06 07:00:48;;;;;;;15.02;5.82;;;;;;;7.81;100.00;100966.88;12797546;23;20009;-83
2022/11/06 07:05:48;;;;;;;11.73;3.92;;;;;;;8.46;100.00;101064.00;12699991;23;20009;-82
2022/11/06 07:10:49;;;;;;;10.75;3.92;;;;;;;8.37;100.00;101043.41;12771695;23;20021;-82
2022/11/06 07:15:49;;;;;;;10.50;4.20;;;;;;;8.39;100.00;101041.28;12747120;23;20024;-82
2022/11/06 07:20:50;;;;;;;9.80;3.75;;;;;;;8.42;100.00;101040.84;12723299;23;20009;-82
2022/11/06 07:25:54;;;;;;;8.02;3.30;;;;;;;8.21;100.00;100987.34;12722845;23;20092;-82
2022/11/06 07:31:02;;;;;;;7.75;3.45;;;;;;;8.66;100.00;101036.22;12722275;23;20110;-82
2022/11/06 07:36:10;;;;;;;11.00;3.67;;;;;;;8.52;100.00;100999.94;12722806;23;20020;-81
2022/11/06 07:41:12;;;;;;;6.20;3.42;;;;;;;8.92;100.00;101070.59;12721366;23;20021;-82
2022/11/06 07:46:12;;;;;;;12.05;3.20;;;;;;;8.50;100.00;100999.34;12746628;23;20073;-82
2022/11/06 07:51:13;;;;;;;9.65;3.17;;;;;;;8.80;100.00;101047.81;12772653;23;20013;-82
2022/11/06 07:56:13;;;;;;;9.85;2.92;;;;;;;9.00;100.00;101056.50;12771764;23;20017;-82
2022/11/06 08:01:15;;;;;;;7.72;2.58;;;;;;;8.96;100.00;101040.75;12722809;23;20025;-82
2022/11/06 08:06:16;;;;;;;11.60;3.05;;;;;;;9.08;100.00;101056.16;12720818;23;20270;-82
2022/11/06 08:11:16;;;;;;;7.28;2.70;;;;;;;8.97;100.00;101004.84;12721754;23;20356;-82
2022/11/06 08:16:17;;;;;;;7.13;2.67;;;;;;;9.06;100.00;101014.38;12746848;23;20028;-82
2022/11/06 08:21:17;;;;;;;7.70;2.33;;;;;;;9.34;100.00;101037.47;12722350;23;20013;-82
2022/11/06 08:26:18;;;;;;;5.78;2.33;;;;;;;9.19;100.00;100988.53;12745982;23;20750;-81
2022/11/06 08:31:19;;;;;;;6.22;2.38;;;;;;;8.76;100.00;100884.66;12745310;23;20396;-82
2022/11/06 08:36:20;;;;;;;7.22;2.40;;;;;;;9.36;100.00;100969.38;12744951;23;20028;-82
2022/11/06 08:41:20;;;;;;;9.57;2.25;;;;;;;9.67;100.00;100992.81;12769067;23;20461;-82
2022/11/06 08:46:21;;;;;;;9.27;2.45;;;;;;;9.57;100.00;100978.03;12745703;23;20013;-81
2022/11/06 08:51:21;;;;;;;12.80;2.83;;;;;;;9.07;100.00;100954.78;12722290;23;20017;-82
2022/11/06 08:56:22;;;;;;;6.47;2.50;;;;;;;9.57;100.00;101003.63;12721647;23;20044;-83
2022/11/06 09:01:22;;;;;;;8.98;2.10;;;;;;;9.58;100.00;100974.22;12744864;23;20020;-83
2022/11/06 09:06:24;;;;;;;7.82;2.20;;;;;;;9.63;100.00;101004.53;12745733;23;20025;-81
2022/11/06 09:11:24;;;;;;;10.15;3.15;;;;;;;9.71;100.00;100993.16;12721364;23;20017;-82
2022/11/06 09:16:25;;;;;;;9.63;2.40;;;;;;;9.73;100.00;101010.22;12696357;23;20379;-83
2022/11/06 09:21:25;;;;;;;6.82;2.85;;;;;;;9.32;100.00;100950.88;12723476;23;20017;-81
2022/11/06 09:26:26;;;;;;;7.60;2.47;;;;;;;9.54;100.00;100964.78;12686151;23;20016;-84
2022/11/06 09:31:27;;;;;;;9.75;2.78;;;;;;;9.58;100.00;100977.78;12691182;23;20051;-83
2022/11/06 09:36:27;;;;;;;12.52;3.05;;;;;;;9.43;100.00;100914.31;12678710;23;20563;-83
2022/11/06 09:41:46;;;;;;;10.20;3.15;;;;;;;9.83;100.00;100952.69;12623226;23;20005;-84
2022/11/06 09:46:48;;;;;;;11.00;3.45;;;;;;;10.14;100.00;100942.22;12721865;23;20048;-85
2022/11/06 09:52:14;;;;;;;13.57;2.60;;;;;;;10.03;100.00;100890.88;12607525;23;20012;-84
2022/11/06 09:57:22;;;;;;;9.18;3.10;;;;;;;10.29;100.00;100857.22;12749919;23;20024;-83
2022/11/06 10:02:30;;;;;;;14.98;2.97;;;;;;;11.04;100.00;100929.25;12755318;23;20493;-83
2022/11/06 10:07:38;;;;;;;6.93;2.47;;;;;;;10.91;100.00;100866.25;12693954;23;20046;-83
2022/11/06 10:13:16;;;;;;;14.68;2.33;;;;;;;11.39;100.00;100910.63;12698723;23;20012;-83
2022/11/06 10:18:28;;;;;;;12.07;2.35;;;;;;;11.37;100.00;100905.41;12717084;23;20030;-84
2022/11/06 10:23:33;;;;;;;10.90;2.20;;;;;;;11.03;100.00;100838.59;12752202;23;20021;-83
2022/11/06 10:29:11;;;;;;;8.10;2.25;;;;;;;11.02;100.00;100890.09;12767797;23;20021;-82
2022/11/06 10:34:14;;;;;;;5.15;1.92;;;;;;;10.98;100.00;100897.22;12799647;23;20026;-84
2022/11/06 10:39:22;;;;;;;9.18;2.35;;;;;;;10.88;100.00;100894.34;12774043;23;20012;-83
2022/11/06 10:44:50;;;;;;;8.38;2.15;;;;;;;10.95;100.00;100891.38;12768582;23;20017;-83
2022/11/06 10:49:57;;;;;;;10.32;2.65;;;;;;;11.03;100.00;100900.03;12799225;23;20009;-83
2022/11/06 10:55:01;;;;;;;6.22;1.65;;;;;;;11.14;100.00;100897.38;12746125;23;20013;-84
2022/11/06 11:00:03;;;;;;;13.48;2.90;;;;;;;10.45;100.00;100807.88;12728875;23;20013;-84
2022/11/06 11:05:15;;;;;;;6.97;2.53;;;;;;;10.68;100.00;100853.59;12824838;23;20077;-84
2022/11/06 11:10:22;;;;;;;7.72;2.50;;;;;;;10.86;100.00;100888.25;12765326;23;20016;-84
2022/11/06 11:15:23;;;;;;;6.00;2.60;;;;;;;10.58;100.00;100832.25;12800977;23;20017;-81
2022/11/06 11:20:32;;;;;;;8.82;2.85;;;;;;;10.49;100.00;100833.78;12777815;23;20008;-83
2022/11/06 11:25:34;;;;;;;9.40;2.67;;;;;;;10.87;100.00;100856.84;12688336;23;20018;-83
2022/11/06 11:30:39;;;;;;;8.95;2.95;;;;;;;11.15;100.00;100853.06;12776867;23;20024;-83
2022/11/06 11:35:40;;;;;;;9.52;2.50;;;;;;;11.37;100.00;100847.50;12773508;23;20406;-84
2022/11/06 11:40:41;;;;;;;7.15;2.28;;;;;;;11.48;100.00;100824.44;12766507;23;20020;-83
2022/11/06 11:45:41;;;;;;;8.00;2.15;;;;;;;11.32;100.00;100792.31;12717017;23;20027;-85
2022/11/06 11:50:42;;;;;;;8.55;1.90;;;;;;;11.54;100.00;100788.66;12809321;23;20012;-84
2022/11/06 11:55:43;;;;;;;7.72;1.40;;;;;;;11.62;100.00;100799.22;12764789;23;20028;-87
2022/11/06 12:01:03;;;;;;;11.60;2.08;;;;;;;11.61;100.00;100768.03;12748147;23;20075;-86
2022/11/06 12:06:11;;;;;;;12.20;1.67;;;;;;;11.66;100.00;100765.31;12748579;23;20116;-85
2022/11/06 12:11:24;;;;;;;4.80;1.30;;;;;;;11.73;100.00;100754.06;12724937;23;20005;-85
2022/11/06 12:16:24;;;;;;;6.90;1.80;;;;;;;11.79;100.00;100728.16;12750441;23;20024;-85
2022/11/06 12:21:35;;;;;;;3.72;1.15;;;;;;;11.98;100.00;100725.00;12700449;23;20017;-86
2022/11/06 12:26:53;;;;;;;5.07;1.10;;;;;;;12.15;100.00;100717.34;12700951;23;20185;-85
2022/11/06 12:32:17;;;;;;;3.88;1.08;;;;;;;12.08;100.00;100678.97;12798503;23;20096;-85
2022/11/06 12:37:25;;;;;;;3.95;1.30;;;;;;;11.96;100.00;100647.19;12750569;23;20068;-85
2022/11/06 12:42:27;;;;;;;5.07;1.20;;;;;;;12.35;100.00;100682.69;12749818;23;20013;-84
2022/11/06 12:47:49;;;;;;;3.72;1.20;;;;;;;12.55;100.00;100688.25;12747854;23;20017;-85
2022/11/06 12:53:21;;;;;;;3.45;1.00;;;;;;;12.93;100.00;100670.34;12799617;23;20044;-85
2022/11/06 12:58:46;;;;;;;5.07;1.48;;;;;;;12.78;100.00;100614.28;12789377;23;20027;-84
2022/11/06 13:04:07;;;;;;;3.60;1.00;;;;;;;13.06;100.00;100648.81;12724875;23;20024;-84
2022/11/06 13:09:20;;;;;;;11.60;2.03;;;;;;;12.46;100.00;100596.00;12771668;23;20021;-85
2022/11/06 13:14:27;;;;;;;7.72;1.27;;;;;;;12.58;100.00;100654.56;12750433;23;20016;-85
2022/11/06 13:19:50;;;;;;;6.45;1.30;;;;;;;12.15;100.00;100651.13;12795644;23;20093;-85
2022/11/06 13:25:10;;;;;;;4.70;1.30;;;;;;;11.81;100.00;100618.41;12775089;23;20021;-82
2022/11/06 13:30:18;;;;;;;1.90;1.02;;;;;;;11.90;100.00;100633.38;12746503;23;20044;-85
2022/11/06 13:35:19;;;;;;;3.92;0.98;;;;;;;11.85;100.00;100616.78;12747953;23;20024;-85
2022/11/06 13:40:23;;;;;;;8.20;1.42;;;;;;;11.91;100.00;100624.00;12745527;23;20016;-85
2022/11/06 13:45:24;;;;;;;7.03;1.38;;;;;;;11.81;100.00;100614.81;12745703;23;20013;-84
2022/11/06 13:50:56;;;;;;;4.60;1.20;;;;;;;11.77;100.00;100622.81;12723140;23;20017;-85
2022/11/06 13:56:48;;;;;;;4.75;1.05;;;;;;;11.78;100.00;100602.41;12747983;23;20337;-85
2022/11/06 14:01:56;;;;;;;6.50;1.08;;;;;;;11.62;100.00;100592.41;12757557;23;20024;-84
2022/11/06 14:06:57;;;;;;;5.45;1.13;;;;;;;11.17;100.00;100534.00;12718332;23;20017;-85
2022/11/06 14:11:59;;;;;;;6.90;1.23;;;;;;;11.66;100.00;100624.69;12722531;23;20017;-84
2022/11/06 14:17:15;;;;;;;6.15;1.00;;;;;;;11.61;100.00;100615.53;12722748;23;20024;-85
2022/11/06 14:22:25;;;;;;;4.90;1.25;;;;;;;11.63;100.00;100632.66;12768058;23;20017;-85
2022/11/06 14:27:27;;;;;;;6.15;1.33;;;;;;;11.57;100.00;100623.53;12771042;23;20024;-85
2022/11/06 14:32:30;;;;;;;3.38;1.23;;;;;;;11.59;100.00;100626.00;12796211;23;20017;-84
2022/11/06 14:37:33;;;;;;;5.70;1.00;;;;;;;11.50;100.00;100618.25;12796815;23;20017;-84
2022/11/06 14:42:35;;;;;;;3.85;1.10;;;;;;;11.37;100.00;100602.19;12754163;23;20021;-85
2022/11/06 14:47:39;;;;;;;5.63;1.48;;;;;;;11.47;100.00;100613.28;12744465;23;20041;-86
2022/11/06 14:52:43;;;;;;;4.13;1.00;;;;;;;11.45;100.00;100609.09;12745737;23;20021;-85
2022/11/06 14:57:45;;;;;;;2.85;1.00;;;;;;;10.88;100.00;100522.53;12706474;23;20112;-85
2022/11/06 15:02:46;;;;;;;4.10;1.40;;;;;;;11.44;100.00;100591.75;12770653;23;20068;-85
2022/11/06 15:07:46;;;;;;;4.80;1.23;;;;;;;11.41;100.00;100597.81;12747582;23;20090;-85
2022/11/06 15:13:09;;;;;;;3.05;1.15;;;;;;;11.42;100.00;100591.19;12796771;23;20108;-84
2022/11/06 15:18:11;;;;;;;9.52;3.22;;;;;;;11.24;100.00;100561.31;12770598;23;20029;-84
2022/11/06 15:23:16;;;;;;;4.65;0.90;;;;;;;11.26;100.00;100583.91;12775284;23;20023;-84
2022/11/06 15:28:19;;;;;;;3.38;1.00;;;;;;;11.02;100.00;100551.28;12773991;23;20009;-85
2022/11/06 15:33:45;;;;;;;2.42;1.00;;;;;;;11.16;100.00;100579.16;12775586;23;20039;-86
2022/11/06 15:38:46;;;;;;;3.42;0.90;;;;;;;10.70;100.00;100516.31;12800781;23;20017;-86
2022/11/06 15:43:47;;;;;;;4.47;1.38;;;;;;;10.87;100.00;100540.13;12800213;23;20018;-84
2022/11/06 15:49:17;;;;;;;5.50;1.85;;;;;;;10.92;100.00;100562.22;12772406;23;20017;-86
2022/11/06 15:54:33;;;;;;;6.20;1.67;;;;;;;10.84;100.00;100551.69;12803734;23;20084;-85
2022/11/06 15:59:33;;;;;;;7.43;2.80;;;;;;;10.62;100.00;100519.56;12771796;23;20669;-85
2022/11/06 16:04:34;;;;;;;7.75;2.42;;;;;;;10.82;100.00;100538.19;12748343;23;20009;-85
2022/11/06 16:09:34;;;;;;;5.75;1.83;;;;;;;10.68;100.00;100528.69;12700394;23;20013;-84
2022/11/06 16:14:43;;;;;;;6.93;1.90;;;;;;;10.61;100.00;100522.59;12723835;23;20017;-85
2022/11/06 16:19:44;;;;;;;6.32;1.63;;;;;;;10.61;100.00;100528.94;12747453;23;20048;-86
2022/11/06 16:25:09;;;;;;;4.82;1.48;;;;;;;10.32;100.00;100478.88;12712693;23;20079;-86
2022/11/06 16:30:22;;;;;;;6.63;1.73;;;;;;;10.27;100.00;100457.63;12775371;23;20021;-86
2022/11/06 16:35:33;;;;;;;7.07;2.40;;;;;;;10.08;100.00;100434.34;12724592;23;20037;-86
2022/11/06 16:40:42;;;;;;;13.27;3.15;;;;;;;10.35;100.00;100491.28;12724272;23;20482;-86
2022/11/06 16:45:53;;;;;;;6.60;1.50;;;;;;;10.16;100.00;100493.56;12796740;23;20080;-85
2022/11/06 16:51:03;;;;;;;3.13;1.67;;;;;;;9.87;100.00;100486.41;12771464;23;20358;-84
2022/11/06 16:56:05;;;;;;;8.38;3.30;;;;;;;9.70;100.00;100507.66;12719966;23;20020;-85
2022/11/06 17:01:05;;;;;;;16.15;3.22;;;;;;;9.61;100.00;100517.44;12744665;23;20433;-86
2022/11/06 17:06:06;;;;;;;8.65;2.55;;;;;;;9.18;100.00;100494.41;12747451;23;20017;-86
2022/11/06 17:11:12;;;;;;;10.88;4.30;;;;;;;9.23;100.00;100521.91;12747144;23;20009;-86
2022/11/06 17:16:23;;;;;;;5.75;2.55;;;;;;;8.88;100.00;100506.59;12772039;23;20032;-86
2022/11/06 17:21:24;;;;;;;2.83;1.13;;;;;;;8.55;100.00;100519.25;12723202;23;20017;-86
2022/11/06 17:26:28;;;;;;;5.28;1.98;;;;;;;7.67;100.00;100436.56;12701439;23;20013;-85
2022/11/06 17:31:29;;;;;;;7.97;1.35;;;;;;;7.98;100.00;100505.63;12723579;23;20013;-85
2022/11/06 17:36:30;;;;;;;6.25;1.20;;;;;;;7.88;100.00;100492.59;12771015;23;20013;-84
2022/11/06 17:41:33;;;;;;;2.78;1.40;;;;;;;7.22;100.00;100369.72;12746989;23;20044;-86
2022/11/06 17:46:36;;;;;;;4.93;2.03;;;;;;;7.66;100.00;100459.56;12723612;23;20029;-86
2022/11/06 17:51:48;;;;;;;7.95;3.00;;;;;;;7.88;100.00;100465.19;12723607;23;20029;-86
2022/11/06 17:56:50;;;;;;;6.32;2.40;;;;;;;7.83;100.00;100440.41;12724580;23;20029;-85
2022/11/06 18:01:51;;;;;;;4.22;1.90;;;;;;;7.78;100.00;100435.66;12770999;23;20028;-84
2022/11/06 18:06:52;;;;;;;4.97;2.40;;;;;;;7.74;100.00;100417.22;12698827;23;20379;-85
2022/11/06 18:11:52;;;;;;;4.97;2.50;;;;;;;7.57;100.00;100398.03;12722372;23;20429;-84
2022/11/06 18:16:53;;;;;;;4.82;2.17;;;;;;;7.60;100.00;100409.31;12768912;23;20059;-86
2022/11/06 18:21:53;;;;;;;4.38;1.80;;;;;;;7.58;100.00;100416.13;12740521;23;20552;-85
2022/11/06 18:26:54;;;;;;;6.68;3.10;;;;;;;7.58;100.00;100416.94;12697410;23;20088;-87
2022/11/06 18:31:54;;;;;;;3.53;2.30;;;;;;;7.62;100.00;100415.38;12721184;23;20016;-87
2022/11/06 18:36:55;;;;;;;6.45;2.20;;;;;;;7.38;100.00;100368.09;12768639;23;20021;-86
2022/11/06 18:41:58;;;;;;;5.03;3.20;;;;;;;7.53;100.00;100394.13;12698247;23;20017;-85
2022/11/06 18:46:59;;;;;;;10.45;3.90;;;;;;;6.98;100.00;100297.81;12721182;23;20025;-85
2022/11/06 18:51:59;;;;;;;9.00;4.13;;;;;;;7.62;100.00;100400.84;12745783;23;20013;-86
2022/11/06 18:57:00;;;;;;;12.77;3.90;;;;;;;7.59;100.00;100384.91;12754772;23;20102;-85
2022/11/06 19:02:01;;;;;;;12.13;4.93;;;;;;;7.68;100.00;100394.38;12766770;23;20081;-85
2022/11/06 19:07:01;;;;;;;6.22;3.78;;;;;;;7.67;100.00;100396.28;12761461;23;20013;-85
2022/11/06 19:12:02;;;;;;;7.38;4.43;;;;;;;7.59;100.00;100377.53;12694826;23;20194;-86
2022/11/06 19:17:02;;;;;;;7.55;4.43;;;;;;;7.73;100.00;100375.31;12706315;23;20021;-85
2022/11/06 19:22:03;;;;;;;8.32;4.47;;;;;;;7.74;100.00;100376.94;12761305;23;20025;-84
2022/11/06 19:27:03;;;;;;;8.00;4.10;;;;;;;7.51;100.00;100328.63;12784104;23;20008;-85
2022/11/06 19:32:04;;;;;;;8.25;3.80;;;;;;;7.39;100.00;100317.72;12712092;23;20009;-86
2022/11/06 19:37:04;;;;;;;12.70;4.75;;;;;;;7.73;100.00;100364.34;12709574;23;20482;-86
2022/11/06 19:42:05;;;;;;;8.63;4.32;;;;;;;7.47;100.00;100327.44;12734744;23;20021;-84
2022/11/06 19:47:06;;;;;;;9.90;4.40;;;;;;;7.68;100.00;100356.84;12761455;23;20236;-86
2022/11/06 19:52:06;;;;;;;8.05;4.25;;;;;;;7.47;100.00;100335.66;12773719;23;20466;-84
2022/11/06 19:57:07;;;;;;;6.70;3.65;;;;;;;7.63;100.00;100359.50;12758871;23;20021;-87
2022/11/06 20:02:08;;;;;;;8.52;4.35;;;;;;;7.53;100.00;100364.00;12738080;23;20025;-86
2022/11/06 20:07:08;;;;;;;11.25;4.50;;;;;;;7.37;100.00;100311.66;12706911;23;20021;-83
2022/11/06 20:12:09;;;;;;;6.90;4.50;;;;;;;7.61;100.00;100352.63;12708098;23;20009;-85
2022/11/06 20:17:09;;;;;;;10.88;4.18;;;;;;;7.52;100.00;100363.13;12702883;23;20082;-82
2022/11/06 20:22:12;;;;;;;7.47;4.15;;;;;;;7.52;100.00;100356.84;12719445;23;20017;-82
2022/11/06 20:27:12;;;;;;;10.13;5.10;;;;;;;7.54;100.00;100349.19;12713198;23;20017;-84
2022/11/06 20:32:13;;;;;;;11.25;5.25;;;;;;;7.36;100.00;100336.53;12714845;23;20009;-84
2022/11/06 20:37:14;;;;;;;8.57;5.20;;;;;;;7.08;100.00;100278.84;12694120;23;20017;-83
2022/11/06 20:42:14;;;;;;;10.63;6.07;;;;;;;7.39;100.00;100347.03;12716780;23;20010;-84
2022/11/06 20:47:15;;;;;;;13.30;5.00;;;;;;;7.43;100.00;100349.00;12707835;23;20013;-84
2022/11/06 20:52:15;;;;;;;13.27;6.13;;;;;;;7.49;100.00;100344.47;12767850;23;20358;-84
2022/11/06 20:57:16;;;;;;;13.65;5.85;;;;;;;7.38;100.00;100332.50;12745616;23;20028;-84
2022/11/06 21:02:16;;;;;;;10.20;5.50;;;;;;;7.52;100.00;100345.88;12771506;23;20029;-85
2022/11/06 21:07:17;;;;;;;8.82;4.97;;;;;;;7.39;100.00;100309.50;12796934;23;20009;-82
2022/11/06 21:12:17;;;;;;;10.95;5.50;;;;;;;7.60;100.00;100326.28;12765121;23;20013;-84
2022/11/06 21:17:18;;;;;;;7.75;5.07;;;;;;;7.65;100.00;100326.41;12745480;23;20025;-84
2022/11/06 21:22:18;;;;;;;12.57;4.75;;;;;;;7.69;100.00;100346.75;12720970;23;20009;-84
2022/11/06 21:27:19;;;;;;;7.35;4.25;;;;;;;7.85;100.00;100340.44;12744968;23;20009;-84
2022/11/06 21:32:19;;;;;;;6.40;4.10;;;;;;;7.95;100.00;100349.88;12796609;23;20017;-84
2022/11/06 21:37:31;;;;;;;8.90;4.55;;;;;;;7.67;100.00;100302.31;12701522;23;20059;-83
2022/11/06 21:42:32;;;;;;;7.43;4.68;;;;;;;8.01;100.00;100346.97;12751754;23;20024;-83
2022/11/06 21:47:32;;;;;;;9.27;4.40;;;;;;;8.12;100.00;100345.22;12770488;23;20017;-82
2022/11/06 21:57:52;;;;;;;6.45;4.22;;;;;;;8.26;100.00;100340.22;12751952;23;20100;-83
2022/11/06 22:02:52;;;;;;;8.93;4.78;;;;;;;8.23;100.00;100321.53;12696920;23;20024;-83
2022/11/06 22:07:53;;;;;;;8.05;4.82;;;;;;;8.36;100.00;100323.06;12770400;23;20052;-83
2022/11/06 22:12:53;;;;;;;12.38;5.20;;;;;;;8.35;100.00;100326.88;12720698;23;20017;-84
2022/11/06 22:17:54;;;;;;;9.02;6.07;;;;;;;8.45;100.00;100332.56;12723314;23;20051;-83
2022/11/06 22:22:54;;;;;;;8.77;5.00;;;;;;;8.39;100.00;100322.56;12754615;23;20048;-83
2022/11/06 22:27:54;;;;;;;10.20;5.70;;;;;;;8.54;100.00;100339.28;12709794;23;20128;-83
2022/11/06 22:32:55;;;;;;;9.15;5.18;;;;;;;8.67;100.00;100347.13;12698914;23;20036;-81
2022/11/06 22:37:56;;;;;;;10.15;5.55;;;;;;;8.62;100.00;100341.56;12748634;23;20021;-82
2022/11/06 22:42:56;;;;;;;10.98;5.65;;;;;;;8.71;100.00;100352.94;12796555;23;20017;-84
2022/11/06 22:47:57;;;;;;;7.65;5.13;;;;;;;8.76;100.00;100349.41;12769775;23;20021;-82
2022/11/06 22:52:57;;;;;;;11.80;7.10;;;;;;;8.82;100.00;100354.72;12770605;23;20041;-84
2022/11/06 22:57:58;;;;;;;8.63;5.28;;;;;;;8.71;100.00;100341.13;12770223;23;20024;-86
2022/11/06 23:02:58;;;;;;;11.52;6.28;;;;;;;8.87;100.00;100362.19;12806371;23;20454;-84
2022/11/06 23:07:59;;;;;;;8.80;5.60;;;;;;;8.87;100.00;100351.22;12808401;23;20031;-82
2022/11/06 23:12:59;;;;;;;12.93;5.70;;;;;;;8.94;100.00;100354.59;12808098;23;20020;-83
2022/11/06 23:18:00;;;;;;;12.55;6.40;;;;;;;8.96;100.00;100365.31;12782791;23;20024;-84
2022/11/06 23:23:01;;;;;;;9.35;6.38;;;;;;;9.07;100.00;100372.56;12783602;23;20059;-85
2022/11/06 23:28:01;;;;;;;12.48;6.68;;;;;;;9.16;100.00;100362.81;12805662;23;20346;-84